Time;durP1;ratioP1;P1;durP2;ratioP2;P2;SDS_P1;SDS_P2;PMS_P1;PMS_P2;Temp;Humidity;BMP_temperature;BMP_pressure;BME280_temperature;BME280_humidity;BME280_pressure;Samples;Min_cycle;Max_cycle;Signal;HPM_P1;HPM_P2
2022/06/08 00:00:20;;;;;;;851.40;770.20;;;15.00;99.90;;;;;;5053354;28;20444;-80
2022/06/08 00:02:50;;;;;;;872.37;791.27;;;14.90;99.90;;;;;;5054215;28;20874;-80
2022/06/08 00:05:17;;;;;;;873.57;792.30;;;14.90;99.90;;;;;;5054149;28;20444;-79
2022/06/08 00:07:44;;;;;;;862.33;782.17;;;15.00;99.90;;;;;;5053518;28;20842;-79
2022/06/08 00:10:11;;;;;;;845.17;765.10;;;15.00;99.90;;;;;;5053409;28;20830;-80
2022/06/08 00:12:39;;;;;;;846.60;766.60;;;15.00;99.90;;;;;;5054231;28;20843;-82
2022/06/08 00:15:08;;;;;;;838.30;758.70;;;15.00;99.90;;;;;;5053517;28;20975;-80
2022/06/08 00:17:34;;;;;;;851.80;771.97;;;15.00;99.90;;;;;;5053471;28;20613;-80
2022/06/08 00:20:01;;;;;;;849.50;769.50;;;15.00;99.90;;;;;;5053027;28;20458;-80
2022/06/08 00:22:28;;;;;;;851.30;771.80;;;15.00;99.90;;;;;;5053556;28;20508;-80
2022/06/08 00:24:55;;;;;;;856.97;777.77;;;15.00;99.90;;;;;;5053817;28;20462;-80
2022/06/08 00:27:21;;;;;;;862.30;783.73;;;15.00;99.90;;;;;;5053567;28;20474;-80
2022/06/08 00:29:49;;;;;;;853.20;775.87;;;15.00;99.90;;;;;;5053065;28;20832;-80
2022/06/08 00:32:17;;;;;;;831.83;755.77;;;15.00;99.90;;;;;;5053327;28;20467;-80
2022/06/08 00:34:44;;;;;;;834.70;758.93;;;15.10;99.90;;;;;;5053350;28;20451;-80
2022/06/08 00:37:11;;;;;;;835.67;761.87;;;15.10;99.90;;;;;;5053531;28;20459;-81
2022/06/08 00:39:38;;;;;;;830.67;757.57;;;15.10;99.90;;;;;;5052787;28;20458;-81
2022/06/08 00:42:08;;;;;;;824.53;753.20;;;15.10;99.90;;;;;;5053518;28;20468;-80
2022/06/08 00:44:40;;;;;;;818.50;749.80;;;15.20;99.90;;;;;;5053782;28;20460;-80
2022/06/08 00:47:11;;;;;;;810.17;741.93;;;15.20;99.90;;;;;;5053126;28;20452;-80
2022/06/08 00:49:43;;;;;;;824.20;755.63;;;15.20;99.90;;;;;;5052657;28;20463;-81
2022/06/08 00:52:12;;;;;;;821.63;752.63;;;15.20;99.90;;;;;;5052993;28;21046;-82
2022/06/08 00:54:40;;;;;;;845.93;776.23;;;15.20;99.90;;;;;;5052980;28;20447;-80
2022/06/08 00:57:14;;;;;;;857.37;786.60;;;15.10;99.90;;;;;;5053252;28;20449;-80
2022/06/08 00:59:45;;;;;;;850.30;780.23;;;15.10;99.90;;;;;;5052620;28;20459;-81
2022/06/08 01:02:13;;;;;;;862.50;791.20;;;15.00;99.90;;;;;;5053027;28;20477;-80
2022/06/08 01:04:39;;;;;;;847.57;776.17;;;15.00;99.90;;;;;;5052410;28;20460;-80
2022/06/08 01:07:07;;;;;;;846.87;774.07;;;14.90;99.90;;;;;;5052874;28;20459;-80
2022/06/08 01:09:36;;;;;;;867.77;794.77;;;14.90;99.90;;;;;;5051783;28;20910;-80
2022/06/08 01:12:11;;;;;;;871.13;796.93;;;14.80;99.90;;;;;;5053153;28;20478;-82
2022/06/08 01:14:39;;;;;;;865.90;791.20;;;14.70;99.90;;;;;;5033973;28;20455;-80
2022/06/08 01:17:09;;;;;;;869.43;794.57;;;14.70;99.90;;;;;;5053232;28;20832;-81
2022/06/08 01:19:39;;;;;;;879.27;803.30;;;14.70;99.90;;;;;;5052299;28;20451;-81
2022/06/08 01:22:11;;;;;;;856.27;779.37;;;14.70;99.90;;;;;;5052780;28;20471;-81
2022/06/08 01:24:38;;;;;;;841.97;764.27;;;14.70;99.90;;;;;;5052663;28;20451;-80
2022/06/08 01:27:16;;;;;;;852.43;773.77;;;14.70;99.90;;;;;;5052905;28;20445;-80
2022/06/08 01:29:51;;;;;;;871.37;791.93;;;14.60;99.90;;;;;;5052292;28;20450;-81
2022/06/08 01:32:22;;;;;;;857.93;777.53;;;14.50;99.90;;;;;;5052813;28;20913;-80
2022/06/08 01:35:03;;;;;;;837.60;757.90;;;14.50;99.90;;;;;;5052446;28;20451;-80
2022/06/08 01:37:44;;;;;;;860.20;778.93;;;14.40;99.90;;;;;;5052774;28;20443;-80
2022/06/08 01:40:33;;;;;;;844.77;764.33;;;14.40;99.90;;;;;;5052405;28;20859;-80
2022/06/08 01:43:11;;;;;;;866.27;784.30;;;14.30;99.90;;;;;;5052273;28;20468;-80
2022/06/08 01:45:49;;;;;;;876.20;793.87;;;14.20;99.90;;;;;;5052797;28;20452;-81
2022/06/08 01:48:27;;;;;;;828.17;745.87;;;14.20;99.90;;;;;;5051820;28;21006;-80
2022/06/08 01:51:00;;;;;;;827.40;744.50;;;14.10;99.90;;;;;;5052950;28;20884;-80
2022/06/08 01:53:38;;;;;;;824.80;741.73;;;14.00;99.90;;;;;;5053773;28;20506;-83
2022/06/08 01:56:16;;;;;;;837.23;753.63;;;13.90;99.90;;;;;;5053149;28;20455;-82
2022/06/08 01:58:48;;;;;;;874.33;789.93;;;13.80;99.90;;;;;;5052001;28;20459;-80
2022/06/08 02:01:20;;;;;;;848.33;764.57;;;13.80;99.90;;;;;;5052725;28;20450;-80
2022/06/08 02:03:58;;;;;;;823.00;739.50;;;13.70;99.90;;;;;;5052446;28;20471;-80
2022/06/08 02:06:37;;;;;;;828.43;745.60;;;13.80;99.90;;;;;;5052298;28;20462;-80
2022/06/08 02:09:12;;;;;;;853.07;769.07;;;13.70;99.90;;;;;;5051932;28;20482;-81
2022/06/08 02:11:46;;;;;;;843.57;759.43;;;13.50;99.90;;;;;;5052159;28;20451;-80
2022/06/08 02:14:15;;;;;;;825.80;741.50;;;13.50;99.90;;;;;;5053197;28;20458;-81
2022/06/08 02:16:47;;;;;;;844.10;758.70;;;13.40;99.90;;;;;;5056158;28;20498;-80
2022/06/08 02:19:19;;;;;;;869.77;782.80;;;13.30;99.90;;;;;;5056097;28;20447;-80
2022/06/08 02:21:50;;;;;;;867.03;779.37;;;13.30;99.90;;;;;;5056054;28;20481;-80
2022/06/08 02:24:23;;;;;;;842.37;755.40;;;13.20;99.90;;;;;;5056446;28;20489;-81
2022/06/08 02:26:54;;;;;;;843.10;755.23;;;13.10;99.90;;;;;;5056432;28;20458;-80
2022/06/08 02:29:27;;;;;;;846.33;757.87;;;13.10;99.90;;;;;;5055637;28;20475;-81
2022/06/08 02:31:58;;;;;;;879.83;790.53;;;13.10;99.90;;;;;;5056392;28;20475;-81
2022/06/08 02:34:31;;;;;;;888.90;798.03;;;13.00;99.90;;;;;;5057107;28;20452;-80
2022/06/08 02:37:04;;;;;;;877.80;788.20;;;13.00;99.90;;;;;;5057289;28;20513;-81
2022/06/08 02:39:37;;;;;;;838.53;750.13;;;12.90;99.90;;;;;;5055424;28;20947;-80
2022/06/08 02:42:08;;;;;;;842.50;753.73;;;12.90;99.90;;;;;;5056180;28;21002;-80
2022/06/08 02:44:36;;;;;;;838.17;748.87;;;12.90;99.90;;;;;;5055857;28;20451;-80
2022/06/08 02:47:07;;;;;;;841.57;753.13;;;12.90;99.90;;;;;;5056005;28;20459;-80
2022/06/08 02:49:36;;;;;;;847.33;758.33;;;12.90;99.90;;;;;;5054493;28;20477;-81
2022/06/08 02:52:07;;;;;;;879.17;788.70;;;12.80;99.90;;;;;;5055995;28;20566;-82
2022/06/08 02:54:35;;;;;;;862.20;772.30;;;12.80;99.90;;;;;;5055915;28;20451;-81
2022/06/08 02:57:13;;;;;;;888.27;797.30;;;12.80;99.90;;;;;;5055634;28;20466;-81
2022/06/08 02:59:50;;;;;;;884.60;794.23;;;12.70;99.90;;;;;;5054228;28;20435;-80
2022/06/08 03:02:20;;;;;;;861.93;771.17;;;12.70;99.90;;;;;;5037255;28;20938;-82
2022/06/08 03:04:54;;;;;;;853.97;764.37;;;12.70;99.90;;;;;;5054840;28;20462;-82
2022/06/08 03:07:26;;;;;;;862.87;774.60;;;12.70;99.90;;;;;;5054939;28;20458;-81
2022/06/08 03:09:56;;;;;;;873.30;784.60;;;12.60;99.90;;;;;;5054218;28;20479;-81
2022/06/08 03:12:28;;;;;;;866.70;777.23;;;12.60;99.90;;;;;;5055591;28;20547;-81
2022/06/08 03:14:56;;;;;;;867.17;778.27;;;12.60;99.90;;;;;;5054816;28;20967;-81
2022/06/08 03:17:28;;;;;;;883.70;793.33;;;12.50;99.90;;;;;;5054520;28;20451;-80
2022/06/08 03:19:55;;;;;;;866.80;777.30;;;12.60;99.90;;;;;;5054165;28;20448;-80
2022/06/08 03:22:24;;;;;;;862.37;772.37;;;12.70;99.90;;;;;;5054683;28;20479;-82
2022/06/08 03:24:51;;;;;;;864.57;774.17;;;12.70;99.90;;;;;;5053935;28;20849;-84
2022/06/08 03:27:20;;;;;;;864.27;774.00;;;12.80;99.90;;;;;;5051060;28;20451;-84
2022/06/08 03:29:47;;;;;;;861.90;771.40;;;12.80;99.90;;;;;;5054517;28;20918;-85
2022/06/08 03:32:13;;;;;;;856.57;767.07;;;12.90;99.90;;;;;;5051822;28;20463;-85
2022/06/08 03:34:41;;;;;;;861.70;772.30;;;12.90;99.90;;;;;;5052804;28;20473;-85
2022/06/08 03:37:09;;;;;;;861.80;771.97;;;12.90;99.90;;;;;;5053914;28;20458;-85
2022/06/08 03:39:36;;;;;;;852.70;763.50;;;12.90;99.90;;;;;;5050296;28;20489;-85
2022/06/08 03:42:04;;;;;;;860.60;771.30;;;13.00;99.90;;;;;;5053400;28;20478;-85
2022/06/08 03:44:33;;;;;;;862.10;772.90;;;13.10;99.90;;;;;;5053456;28;20451;-84
2022/06/08 03:47:05;;;;;;;858.70;768.27;;;13.20;99.90;;;;;;5052762;28;20474;-85
2022/06/08 03:49:34;;;;;;;854.23;764.33;;;13.20;99.90;;;;;;5050901;28;20474;-84
2022/06/08 03:52:02;;;;;;;867.90;778.03;;;13.40;99.90;;;;;;5053066;28;20510;-84
2022/06/08 03:54:34;;;;;;;867.80;778.20;;;13.30;99.90;;;;;;5052235;28;20447;-85
2022/06/08 03:57:04;;;;;;;863.00;774.57;;;13.30;99.90;;;;;;5051478;28;20459;-85
2022/06/08 03:59:33;;;;;;;873.53;785.00;;;13.30;99.90;;;;;;5052749;28;20458;-85
2022/06/08 04:02:01;;;;;;;868.77;780.23;;;13.30;99.90;;;;;;5052627;28;20868;-85
2022/06/08 04:04:28;;;;;;;864.20;775.60;;;13.30;99.90;;;;;;5052104;28;20452;-82
2022/06/08 04:06:55;;;;;;;876.90;787.60;;;13.30;99.90;;;;;;5053879;28;20542;-84
2022/06/08 04:09:22;;;;;;;879.53;789.73;;;13.30;99.90;;;;;;5056638;28;20479;-82
2022/06/08 04:11:48;;;;;;;867.83;779.43;;;13.30;99.90;;;;;;5055093;28;20471;-81
2022/06/08 04:14:15;;;;;;;863.47;774.37;;;13.30;99.90;;;;;;5057756;28;20447;-82
2022/06/08 04:16:43;;;;;;;869.30;779.80;;;13.30;99.90;;;;;;5057668;28;20443;-82
2022/06/08 04:19:10;;;;;;;869.93;781.40;;;13.40;99.90;;;;;;5054304;28;20443;-86
2022/06/08 04:21:37;;;;;;;872.80;784.50;;;13.30;99.90;;;;;;5058897;28;20447;-84
2022/06/08 04:24:04;;;;;;;874.80;785.90;;;13.40;99.90;;;;;;5057849;28;20459;-84
2022/06/08 04:26:31;;;;;;;874.10;785.90;;;13.40;99.90;;;;;;5056634;28;20888;-84
2022/06/08 04:28:58;;;;;;;873.53;785.80;;;13.40;99.90;;;;;;5054726;28;20857;-82
2022/06/08 04:31:24;;;;;;;868.37;781.07;;;13.50;99.90;;;;;;5054009;28;20458;-81
2022/06/08 04:33:53;;;;;;;871.83;783.90;;;13.50;99.90;;;;;;5052648;28;20474;-81
2022/06/08 04:36:20;;;;;;;881.10;794.70;;;13.50;99.90;;;;;;5052312;28;20447;-81
2022/06/08 04:38:53;;;;;;;870.40;784.10;;;13.50;99.90;;;;;;5053618;28;20454;-81
2022/06/08 04:41:23;;;;;;;871.03;786.47;;;13.60;99.90;;;;;;5056151;28;20528;-86
2022/06/08 04:43:51;;;;;;;884.23;797.97;;;13.70;99.90;;;;;;5055892;28;20463;-81
2022/06/08 04:46:18;;;;;;;877.00;791.10;;;13.80;99.90;;;;;;5054811;28;20515;-81
2022/06/08 04:48:47;;;;;;;875.90;790.47;;;13.90;99.90;;;;;;5053537;28;20478;-81
2022/06/08 04:51:16;;;;;;;876.87;790.97;;;14.00;99.90;;;;;;5052150;28;20451;-80
2022/06/08 04:53:47;;;;;;;879.37;793.97;;;14.20;99.90;;;;;;5054744;28;20566;-82
2022/06/08 04:56:16;;;;;;;874.93;789.37;;;14.40;99.90;;;;;;5055385;28;20452;-81
2022/06/08 04:58:46;;;;;;;876.20;791.90;;;14.60;99.90;;;;;;5054067;28;20519;-81
2022/06/08 05:01:15;;;;;;;879.87;795.57;;;14.80;99.90;;;;;;5055059;28;20876;-82
2022/06/08 05:03:45;;;;;;;888.03;804.93;;;15.00;99.90;;;;;;5054662;28;20482;-83
2022/06/08 05:06:11;;;;;;;879.67;799.07;;;15.30;99.90;;;;;;5054699;28;20454;-81
2022/06/08 05:08:40;;;;;;;873.00;796.40;;;15.50;99.90;;;;;;5053920;28;20458;-82
2022/06/08 05:11:08;;;;;;;866.17;792.57;;;15.70;99.90;;;;;;5053970;28;20531;-81
2022/06/08 05:13:36;;;;;;;879.77;811.20;;;15.90;99.90;;;;;;5054454;28;20474;-80
2022/06/08 05:16:04;;;;;;;845.77;780.90;;;16.10;99.90;;;;;;5053575;28;20497;-81
2022/06/08 05:18:31;;;;;;;779.10;723.40;;;16.40;99.90;;;;;;5053900;28;20461;-81
2022/06/08 05:20:58;;;;;;;702.13;660.60;;;16.60;99.90;;;;;;5054863;28;20453;-81
2022/06/08 05:23:27;;;;;;;469.97;448.33;;;16.90;99.90;;;;;;5054531;28;20475;-82
2022/06/08 05:25:56;;;;;;;307.47;295.53;;;17.10;99.90;;;;;;5055467;28;20527;-82
2022/06/08 05:28:24;;;;;;;195.30;189.00;;;17.30;99.90;;;;;;5057546;28;20575;-80
2022/06/08 05:30:51;;;;;;;73.90;71.17;;;17.30;99.90;;;;;;5053380;28;20473;-81
2022/06/08 05:33:18;;;;;;;85.23;82.17;;;17.30;99.90;;;;;;5054026;28;21086;-81
2022/06/08 05:35:45;;;;;;;109.47;105.77;;;17.30;99.90;;;;;;5045852;28;20450;-81
2022/06/08 05:38:12;;;;;;;143.60;138.57;;;17.40;99.90;;;;;;5056273;28;20446;-80
2022/06/08 05:40:39;;;;;;;68.83;65.97;;;17.50;99.90;;;;;;5052961;28;20954;-82
2022/06/08 05:43:08;;;;;;;82.27;79.23;;;17.60;99.90;;;;;;5051840;28;20481;-80
2022/06/08 05:45:36;;;;;;;83.23;79.97;;;17.60;99.90;;;;;;5052790;28;20464;-80
2022/06/08 05:48:04;;;;;;;87.60;84.40;;;17.80;99.90;;;;;;5051414;28;20537;-79
2022/06/08 05:50:31;;;;;;;49.03;46.83;;;17.90;99.90;;;;;;5054181;28;20486;-79
2022/06/08 05:52:58;;;;;;;18.53;17.40;;;17.90;99.90;;;;;;5048432;28;20477;-83
2022/06/08 05:55:27;;;;;;;30.40;29.10;;;17.80;99.90;;;;;;5053028;28;20467;-80
2022/06/08 05:57:55;;;;;;;26.10;24.80;;;17.80;99.90;;;;;;5055320;28;20493;-80
2022/06/08 06:00:25;;;;;;;13.03;12.17;;;17.80;99.90;;;;;;5055978;28;20450;-80
2022/06/08 06:02:52;;;;;;;18.47;17.33;;;17.70;99.90;;;;;;5056745;28;20546;-79
2022/06/08 06:05:21;;;;;;;11.83;10.93;;;17.70;99.90;;;;;;5055517;28;20962;-82
2022/06/08 06:07:48;;;;;;;23.17;22.07;;;17.80;99.90;;;;;;5055187;28;20838;-80
2022/06/08 06:10:16;;;;;;;21.93;20.83;;;17.80;99.90;;;;;;5053832;28;20474;-80
2022/06/08 06:12:43;;;;;;;31.60;30.10;;;17.80;99.90;;;;;;5054337;28;20558;-80
2022/06/08 06:15:12;;;;;;;24.63;23.43;;;17.90;99.90;;;;;;5054057;28;20454;-80
2022/06/08 06:17:40;;;;;;;19.83;18.53;;;18.00;99.90;;;;;;5054427;28;20451;-80
2022/06/08 06:20:08;;;;;;;22.07;20.90;;;18.00;99.90;;;;;;5054745;28;20456;-80
2022/06/08 06:22:35;;;;;;;21.10;19.90;;;18.10;99.90;;;;;;5054911;28;20992;-79
2022/06/08 06:25:05;;;;;;;13.37;12.57;;;18.20;99.90;;;;;;5056029;28;20528;-85
2022/06/08 06:27:32;;;;;;;12.20;11.40;;;18.20;99.90;;;;;;5054781;28;20453;-82
2022/06/08 06:29:59;;;;;;;11.37;10.57;;;18.20;99.90;;;;;;5056256;28;20850;-83
2022/06/08 06:32:28;;;;;;;11.63;9.80;;;18.30;99.90;;;;;;5056300;28;20477;-82
2022/06/08 06:34:58;;;;;;;9.00;8.40;;;18.40;99.90;;;;;;5057820;28;20460;-83
2022/06/08 06:37:26;;;;;;;16.23;15.30;;;18.40;99.90;;;;;;5056330;28;20459;-80
2022/06/08 06:39:52;;;;;;;10.83;10.13;;;18.60;99.90;;;;;;5058095;28;20445;-80
2022/06/08 06:42:26;;;;;;;11.87;10.77;;;18.80;99.90;;;;;;5063587;28;20472;-81
2022/06/08 06:44:54;;;;;;;8.10;7.30;;;19.20;99.90;;;;;;5061211;28;20885;-80
2022/06/08 06:47:21;;;;;;;7.40;4.13;;;19.30;99.90;;;;;;5060941;28;20457;-79
2022/06/08 06:49:49;;;;;;;5.87;2.73;;;19.50;99.90;;;;;;5058837;28;20500;-81
2022/06/08 06:52:18;;;;;;;4.70;2.60;;;19.50;97.00;;;;;;5057816;28;20484;-80
2022/06/08 06:54:46;;;;;;;7.83;2.30;;;19.70;96.50;;;;;;5060124;28;20464;-80
2022/06/08 06:57:13;;;;;;;5.10;2.47;;;19.90;95.10;;;;;;5059108;28;20989;-81
2022/06/08 06:59:39;;;;;;;4.83;2.67;;;20.00;95.10;;;;;;5059610;28;20457;-82
2022/06/08 07:02:11;;;;;;;5.37;2.13;;;20.10;93.30;;;;;;5057788;28;20508;-80
2022/06/08 07:04:38;;;;;;;5.73;2.10;;;20.20;92.90;;;;;;5059446;28;20523;-81
2022/06/08 07:07:05;;;;;;;9.90;3.00;;;20.10;92.80;;;;;;5060700;28;20453;-81
2022/06/08 07:09:36;;;;;;;8.00;3.13;;;20.00;93.50;;;;;;5059309;28;21006;-81
2022/06/08 07:12:12;;;;;;;5.70;2.40;;;19.80;92.60;;;;;;5058375;28;20480;-81
2022/06/08 07:14:39;;;;;;;5.68;2.60;;;19.80;93.80;;;;;;5059178;28;20517;-81
2022/06/08 07:17:06;;;;;;;4.77;2.30;;;19.70;93.00;;;;;;5062525;28;20206;-81
2022/06/08 07:19:33;;;;;;;6.10;2.83;;;19.60;93.70;;;;;;5059797;28;20454;-81
2022/06/08 07:21:59;;;;;;;5.20;2.53;;;19.60;93.20;;;;;;5061575;28;20607;-82
2022/06/08 07:24:31;;;;;;;5.73;2.67;;;19.60;93.50;;;;;;5062128;28;20448;-81
2022/06/08 07:27:00;;;;;;;5.23;2.90;;;19.40;93.90;;;;;;5061359;28;20465;-81
2022/06/08 07:29:27;;;;;;;4.90;2.07;;;19.50;94.50;;;;;;5060650;28;20452;-81
2022/06/08 07:31:53;;;;;;;4.10;2.17;;;19.50;94.30;;;;;;5060674;28;20557;-81
2022/06/08 07:34:21;;;;;;;4.80;2.37;;;19.70;93.80;;;;;;5061115;28;20455;-81
2022/06/08 07:36:47;;;;;;;5.83;2.73;;;19.70;93.40;;;;;;5061294;28;20448;-84
2022/06/08 07:39:15;;;;;;;7.47;2.63;;;19.80;93.70;;;;;;5060104;28;20460;-81
2022/06/08 07:41:43;;;;;;;5.20;2.87;;;19.90;93.10;;;;;;5060721;28;20465;-81
2022/06/08 07:44:11;;;;;;;5.67;2.10;;;20.00;91.70;;;;;;5060146;28;20450;-81
2022/06/08 07:46:38;;;;;;;5.43;1.90;;;20.10;91.50;;;;;;5060898;28;20450;-81
2022/06/08 07:51:53;;;;;;;6.00;2.17;;;19.90;90.50;;;;;;5059129;28;20464;-81
2022/06/08 07:54:22;;;;;;;7.10;2.50;;;20.00;90.80;;;;;;5065714;22;20547;-86
2022/06/08 07:56:49;;;;;;;7.33;2.30;;;20.10;90.20;;;;;;5041015;28;20493;-85
2022/06/08 07:59:17;;;;;;;4.50;2.03;;;20.20;87.80;;;;;;5057965;28;20861;-86
2022/06/08 08:01:43;;;;;;;5.00;1.90;;;20.50;86.60;;;;;;5046378;28;20461;-85
2022/06/08 08:04:10;;;;;;;6.73;2.00;;;20.90;84.00;;;;;;5038506;28;20850;-86
2022/06/08 08:06:37;;;;;;;4.13;1.70;;;21.10;79.70;;;;;;5026801;28;20479;-85
2022/06/08 08:09:04;;;;;;;4.77;1.97;;;21.60;79.40;;;;;;5037860;28;20460;-86
2022/06/08 08:11:31;;;;;;;13.47;2.10;;;21.80;76.50;;;;;;5038285;28;20473;-85
2022/06/08 08:13:57;;;;;;;4.00;1.60;;;22.00;72.60;;;;;;5038727;28;20489;-86
2022/06/08 08:16:26;;;;;;;4.60;2.00;;;22.10;72.00;;;;;;5038629;28;20456;-85
2022/06/08 08:18:52;;;;;;;3.60;1.33;;;22.20;72.10;;;;;;5037783;28;20497;-86
2022/06/08 08:21:19;;;;;;;4.57;1.80;;;22.10;71.70;;;;;;5038729;28;20453;-85
2022/06/08 08:23:46;;;;;;;4.03;1.60;;;22.00;69.90;;;;;;5038861;28;20468;-86
2022/06/08 08:26:12;;;;;;;5.30;1.40;;;22.10;70.00;;;;;;5038984;28;20463;-86
2022/06/08 08:28:39;;;;;;;5.80;1.90;;;22.00;66.10;;;;;;5038091;28;20461;-85
2022/06/08 08:31:06;;;;;;;4.40;1.60;;;21.60;70.60;;;;;;5038059;28;20481;-86
2022/06/08 08:33:34;;;;;;;5.13;1.80;;;21.70;73.20;;;;;;5038327;28;20475;-86
2022/06/08 08:36:01;;;;;;;4.10;1.50;;;22.30;69.80;;;;;;5040253;28;20458;-85
2022/06/08 08:38:27;;;;;;;6.23;1.90;;;23.30;65.00;;;;;;5043029;28;21011;-86
2022/06/08 08:40:57;;;;;;;7.20;1.60;;;24.00;59.50;;;;;;5038558;28;20459;-86
2022/06/08 08:43:27;;;;;;;5.93;1.50;;;23.70;60.50;;;;;;5037925;28;20475;-86
2022/06/08 08:46:26;;;;;;;4.43;1.53;;;23.20;50.70;;;;;;5038704;28;20455;-86
2022/06/08 08:49:03;;;;;;;4.57;1.60;;;23.60;49.10;;;;;;5005912;28;20456;-86
2022/06/08 08:51:36;;;;;;;4.63;1.80;;;23.70;47.80;;;;;;5039729;28;20476;-85
2022/06/08 08:54:11;;;;;;;4.93;1.90;;;23.70;47.80;;;;;;5039285;28;20902;-86
2022/06/08 08:56:39;;;;;;;8.53;1.90;;;24.00;52.10;;;;;;5040013;28;20967;-86
2022/06/08 08:59:13;;;;;;;5.30;1.60;;;24.10;49.00;;;;;;5039570;28;20455;-86
2022/06/08 09:01:42;;;;;;;4.43;1.67;;;24.30;46.80;;;;;;5041821;28;20455;-87
2022/06/08 09:04:21;;;;;;;4.47;1.37;;;23.90;45.60;;;;;;5040130;28;20471;-86
2022/06/08 09:06:48;;;;;;;5.73;1.57;;;24.10;49.00;;;;;;5040567;28;20995;-85
2022/06/08 09:09:19;;;;;;;5.90;1.57;;;23.70;45.20;;;;;;5037954;28;20466;-86
2022/06/08 09:11:46;;;;;;;6.90;1.80;;;23.70;47.80;;;;;;5038190;28;20488;-86
2022/06/08 09:14:16;;;;;;;4.80;1.17;;;23.30;45.60;;;;;;5037950;28;20468;-86
2022/06/08 09:16:45;;;;;;;6.07;1.50;;;23.60;47.70;;;;;;5038715;28;20830;-86
2022/06/08 09:19:33;;;;;;;5.53;1.73;;;23.80;47.90;;;;;;5038164;28;20488;-86
2022/06/08 09:22:23;;;;;;;4.30;1.47;;;23.50;45.90;;;;;;5038682;28;20448;-87
2022/06/08 09:24:52;;;;;;;6.83;1.40;;;23.50;45.40;;;;;;5040512;28;20457;-86
2022/06/08 09:27:27;;;;;;;5.90;1.50;;;23.40;45.90;;;;;;5041565;28;20456;-86
2022/06/08 09:30:11;;;;;;;6.77;2.10;;;23.70;47.80;;;;;;5041683;28;20450;-86
2022/06/08 09:32:45;;;;;;;4.93;1.30;;;24.00;42.10;;;;;;5039382;28;20478;-87
2022/06/08 09:35:26;;;;;;;7.80;2.03;;;24.20;43.10;;;;;;5042147;28;20498;-87
2022/06/08 09:37:55;;;;;;;6.57;2.30;;;24.30;42.70;;;;;;5042277;28;20460;-86
2022/06/08 09:40:40;;;;;;;5.57;1.47;;;24.30;40.00;;;;;;5041651;28;20448;-83
2022/06/08 09:43:34;;;;;;;5.00;1.30;;;23.90;41.60;;;;;;5042869;28;20472;-86
2022/06/08 09:46:07;;;;;;;5.10;1.80;;;23.40;42.70;;;;;;5042090;28;20463;-86
2022/06/08 09:52:06;;;;;;;8.63;1.73;;;23.20;47.30;;;;;;5038494;28;20486;-83
2022/06/08 09:54:44;;;;;;;8.63;2.07;;;22.80;46.30;;;;;;5041042;28;20486;-86
2022/06/08 09:57:25;;;;;;;6.33;1.83;;;22.20;49.80;;;;;;5030023;28;20470;-82
2022/06/08 10:00:02;;;;;;;6.33;2.00;;;22.00;54.20;;;;;;5037293;28;20452;-82
2022/06/08 10:02:39;;;;;;;6.93;1.50;;;21.40;54.50;;;;;;5037138;28;20454;-83
2022/06/08 10:05:16;;;;;;;6.27;2.23;;;21.20;62.10;;;;;;5034832;28;20455;-82
2022/06/08 10:07:52;;;;;;;5.93;2.03;;;20.80;62.60;;;;;;5036367;28;20485;-84
2022/06/08 10:10:30;;;;;;;5.93;1.53;;;20.10;76.90;;;;;;5034649;28;20467;-84
2022/06/08 10:13:00;;;;;;;8.60;1.97;;;19.60;83.60;;;;;;5036311;28;20476;-84
2022/06/08 10:15:34;;;;;;;6.00;2.37;;;19.30;83.90;;;;;;5036796;28;20459;-86
2022/06/08 10:18:07;;;;;;;7.00;2.03;;;19.00;88.70;;;;;;5034500;28;20539;-85
2022/06/08 10:20:37;;;;;;;10.80;3.13;;;18.70;93.10;;;;;;5041103;28;20465;-85
2022/06/08 10:23:18;;;;;;;8.33;4.67;;;18.50;99.90;;;;;;5042174;28;21412;-84
2022/06/08 10:25:48;;;;;;;11.43;10.37;;;18.10;99.90;;;;;;5043156;28;20451;-84
2022/06/08 10:28:22;;;;;;;21.50;20.00;;;18.10;99.90;;;;;;5041542;28;20453;-83
2022/06/08 10:30:56;;;;;;;24.50;23.20;;;18.10;99.90;;;;;;5042215;28;20469;-84
2022/06/08 10:33:31;;;;;;;59.37;56.77;;;18.20;99.90;;;;;;5049090;28;20492;-85
2022/06/08 10:35:58;;;;;;;122.37;117.43;;;18.30;99.90;;;;;;5045779;28;20836;-84
2022/06/08 10:38:29;;;;;;;107.27;103.07;;;18.30;99.90;;;;;;5040071;28;20458;-86
2022/06/08 10:41:01;;;;;;;252.13;244.37;;;18.30;99.90;;;;;;5041642;28;20469;-87
2022/06/08 10:43:31;;;;;;;220.27;212.97;;;18.30;99.90;;;;;;5039310;28;20871;-88
2022/06/08 10:46:01;;;;;;;437.83;423.93;;;18.20;99.90;;;;;;5042604;28;20461;-87
2022/06/08 10:48:48;;;;;;;446.07;430.90;;;18.00;99.90;;;;;;5044013;28;20484;-87
2022/06/08 10:51:39;;;;;;;571.60;550.83;;;17.70;99.90;;;;;;5057245;28;20899;-86
2022/06/08 10:54:54;;;;;;;677.83;639.37;;;17.30;99.90;;;;;;5057612;28;20462;-87
2022/06/08 10:57:43;;;;;;;751.10;702.73;;;17.30;99.90;;;;;;5057869;28;20473;-87
2022/06/08 11:00:25;;;;;;;688.37;647.80;;;17.00;99.90;;;;;;5048924;28;20437;-87
2022/06/08 11:02:55;;;;;;;729.57;681.63;;;16.60;99.90;;;;;;5042748;28;20468;-86
2022/06/08 11:05:31;;;;;;;757.90;703.73;;;16.60;99.90;;;;;;5040843;28;20467;-87
2022/06/08 11:08:15;;;;;;;742.47;689.67;;;16.70;99.90;;;;;;5040214;28;20444;-87
2022/06/08 11:11:00;;;;;;;736.73;683.30;;;16.50;99.90;;;;;;5042126;28;20467;-87
2022/06/08 11:13:34;;;;;;;741.33;689.63;;;16.50;99.90;;;;;;5026322;28;20488;-87
2022/06/08 11:16:13;;;;;;;724.63;673.50;;;16.60;99.90;;;;;;5036570;28;20447;-87
2022/06/08 11:18:43;;;;;;;724.60;671.33;;;16.70;99.90;;;;;;5046274;28;20463;-87
2022/06/08 11:21:38;;;;;;;722.00;670.17;;;16.90;99.90;;;;;;5042876;28;20453;-87
2022/06/08 11:24:17;;;;;;;701.50;654.40;;;16.80;99.90;;;;;;5041824;28;20503;-88
2022/06/08 11:26:53;;;;;;;714.83;665.03;;;16.70;99.90;;;;;;5042682;28;20455;-88
2022/06/08 11:29:40;;;;;;;711.13;663.80;;;17.10;99.90;;;;;;5041655;28;20488;-87
2022/06/08 11:32:22;;;;;;;722.57;669.87;;;16.90;99.90;;;;;;5039461;28;20507;-85
2022/06/08 11:35:06;;;;;;;696.73;648.90;;;17.10;99.90;;;;;;5038415;28;20453;-80
2022/06/08 11:37:40;;;;;;;720.70;667.73;;;17.10;99.90;;;;;;5034595;28;20826;-85
2022/06/08 11:40:14;;;;;;;719.27;664.77;;;17.30;99.90;;;;;;5033389;28;20460;-85
2022/06/08 11:42:50;;;;;;;718.07;661.53;;;17.40;99.90;;;;;;5023981;28;20474;-83
2022/06/08 11:45:19;;;;;;;724.73;670.53;;;17.60;99.90;;;;;;5034395;28;20484;-82
2022/06/08 11:47:54;;;;;;;713.60;666.70;;;17.40;99.90;;;;;;5035006;28;20496;-83
2022/06/08 11:50:22;;;;;;;696.23;655.07;;;17.30;99.90;;;;;;5034172;28;20949;-82
2022/06/08 11:52:59;;;;;;;697.67;653.97;;;17.20;99.90;;;;;;5034676;28;20482;-86
2022/06/08 11:55:27;;;;;;;685.27;645.97;;;17.20;99.90;;;;;;5038842;28;20448;-86
2022/06/08 11:58:00;;;;;;;668.53;633.63;;;17.20;99.90;;;;;;5035712;28;20457;-87
2022/06/08 12:00:32;;;;;;;671.10;638.50;;;17.20;99.90;;;;;;5035386;28;20827;-86
2022/06/08 12:03:03;;;;;;;688.80;647.60;;;17.30;99.90;;;;;;5042855;28;20468;-82
2022/06/08 12:05:34;;;;;;;675.27;639.03;;;17.60;99.90;;;;;;5036092;28;20450;-83
2022/06/08 12:08:10;;;;;;;674.10;639.40;;;17.70;99.90;;;;;;5035163;28;20465;-82
2022/06/08 12:10:37;;;;;;;680.50;645.50;;;17.90;99.90;;;;;;5033619;28;20453;-80
2022/06/08 12:13:18;;;;;;;698.70;662.13;;;18.00;99.90;;;;;;5033439;28;20470;-85
2022/06/08 12:15:49;;;;;;;688.43;654.10;;;17.80;99.90;;;;;;5032320;28;21252;-84
2022/06/08 12:18:41;;;;;;;649.23;623.07;;;17.80;99.90;;;;;;5033542;28;21022;-80
2022/06/08 12:21:21;;;;;;;699.33;667.40;;;17.70;99.90;;;;;;5036284;28;20470;-86
2022/06/08 12:24:02;;;;;;;678.33;648.87;;;17.60;99.90;;;;;;5037247;28;20482;-86
2022/06/08 12:26:40;;;;;;;697.13;663.63;;;17.60;99.90;;;;;;5036968;28;20480;-84
2022/06/08 12:29:27;;;;;;;695.47;659.00;;;17.60;99.90;;;;;;5037514;28;20448;-85
2022/06/08 12:32:33;;;;;;;700.17;664.23;;;17.70;99.90;;;;;;5037656;28;20485;-86
2022/06/08 12:35:20;;;;;;;590.70;568.23;;;17.80;99.90;;;;;;5037552;28;20454;-86
2022/06/08 12:37:47;;;;;;;576.93;556.03;;;17.60;99.90;;;;;;5038706;28;20453;-87
2022/06/08 12:40:31;;;;;;;580.10;559.53;;;17.60;99.90;;;;;;5036410;28;20464;-86
2022/06/08 12:43:15;;;;;;;683.40;652.07;;;17.60;99.90;;;;;;5038656;28;20476;-86
2022/06/08 12:45:47;;;;;;;698.97;665.60;;;17.60;99.90;;;;;;5038687;28;20881;-86
2022/06/08 12:48:26;;;;;;;695.33;663.27;;;17.70;99.90;;;;;;5037726;28;20462;-86